sensor_id;sensor_type;location;lat;lon;timestamp;pressure;altitude;pressure_sealevel;temperature;humidity
42705;BME280;28342;42.594;23.414;2022-12-18T00:01:37;95198.66;;;8.15;96.53
42705;BME280;28342;42.594;23.414;2022-12-18T00:04:04;95215.84;;;8.12;95.55
42705;BME280;28342;42.594;23.414;2022-12-18T00:06:30;95231.69;;;8.12;95.70
42705;BME280;28342;42.594;23.414;2022-12-18T00:08:59;95224.38;;;7.94;95.51
42705;BME280;28342;42.594;23.414;2022-12-18T00:11:27;95230.16;;;8.01;95.27
42705;BME280;28342;42.594;23.414;2022-12-18T00:13:57;95243.66;;;7.99;94.47
42705;BME280;28342;42.594;23.414;2022-12-18T00:16:24;95228.66;;;7.79;94.33
42705;BME280;28342;42.594;23.414;2022-12-18T00:18:52;95246.91;;;7.81;94.73
42705;BME280;28342;42.594;23.414;2022-12-18T00:21:18;95245.81;;;7.87;94.21
42705;BME280;28342;42.594;23.414;2022-12-18T00:23:44;95254.28;;;7.79;94.24
42705;BME280;28342;42.594;23.414;2022-12-18T00:26:13;95243.28;;;7.62;93.52
42705;BME280;28342;42.594;23.414;2022-12-18T00:28:40;95267.78;;;7.77;93.15
42705;BME280;28342;42.594;23.414;2022-12-18T00:31:08;95251.47;;;7.60;92.15
42705;BME280;28342;42.594;23.414;2022-12-18T00:33:34;95256.78;;;7.45;93.19
42705;BME280;28342;42.594;23.414;2022-12-18T00:36:07;95252.09;;;7.37;93.23
42705;BME280;28342;42.594;23.414;2022-12-18T00:38:34;95266.59;;;7.39;94.14
42705;BME280;28342;42.594;23.414;2022-12-18T00:41:00;95265.53;;;7.30;93.58
42705;BME280;28342;42.594;23.414;2022-12-18T00:43:26;95272.94;;;7.38;94.49
42705;BME280;28342;42.594;23.414;2022-12-18T00:45:51;95266.09;;;7.17;93.42
42705;BME280;28342;42.594;23.414;2022-12-18T00:48:17;95276.13;;;7.25;94.23
42705;BME280;28342;42.594;23.414;2022-12-18T00:50:42;95274.53;;;7.24;93.74
42705;BME280;28342;42.594;23.414;2022-12-18T00:53:08;95284.31;;;7.24;94.49
42705;BME280;28342;42.594;23.414;2022-12-18T00:55:33;95271.91;;;7.09;94.34
42705;BME280;28342;42.594;23.414;2022-12-18T00:57:59;95277.97;;;7.25;94.27
42705;BME280;28342;42.594;23.414;2022-12-18T01:00:25;95279.81;;;7.19;93.68
42705;BME280;28342;42.594;23.414;2022-12-18T01:02:50;95293.00;;;7.19;93.35
42705;BME280;28342;42.594;23.414;2022-12-18T01:05:15;95271.91;;;6.99;93.69
42705;BME280;28342;42.594;23.414;2022-12-18T01:07:41;95290.91;;;7.11;92.80
42705;BME280;28342;42.594;23.414;2022-12-18T01:10:08;95290.38;;;6.88;94.05
42705;BME280;28342;42.594;23.414;2022-12-18T01:12:34;95285.38;;;6.97;93.72
42705;BME280;28342;42.594;23.414;2022-12-18T01:15:00;95290.38;;;7.04;92.86
42705;BME280;28342;42.594;23.414;2022-12-18T01:17:26;95300.41;;;7.02;92.33
42705;BME280;28342;42.594;23.414;2022-12-18T01:19:51;95303.03;;;7.12;92.92
42705;BME280;28342;42.594;23.414;2022-12-18T01:22:16;95287.22;;;7.07;92.77
42705;BME280;28342;42.594;23.414;2022-12-18T01:24:42;95304.09;;;6.85;93.11
42705;BME280;28342;42.594;23.414;2022-12-18T01:27:07;95305.69;;;6.97;92.99
42705;BME280;28342;42.594;23.414;2022-12-18T01:29:33;95308.31;;;6.76;92.87
42705;BME280;28342;42.594;23.414;2022-12-18T01:31:58;95306.72;;;6.85;92.96
42705;BME280;28342;42.594;23.414;2022-12-18T01:34:24;95318.88;;;6.92;92.71
42705;BME280;28342;42.594;23.414;2022-12-18T01:36:49;95297.50;;;6.83;93.40
42705;BME280;28342;42.594;23.414;2022-12-18T01:39:20;95312.03;;;6.96;93.12
42705;BME280;28342;42.594;23.414;2022-12-18T01:41:45;95310.44;;;6.89;91.72
42705;BME280;28342;42.594;23.414;2022-12-18T01:45:02;95320.97;;;6.69;91.17
42705;BME280;28342;42.594;23.414;2022-12-18T01:47:48;95303.00;;;6.56;91.81
42705;BME280;28342;42.594;23.414;2022-12-18T01:52:57;95324.63;;;6.58;92.10
42705;BME280;28342;42.594;23.414;2022-12-18T01:55:28;95328.59;;;6.55;92.18
42705;BME280;28342;42.594;23.414;2022-12-18T01:57:59;95325.19;;;6.60;91.41
42705;BME280;28342;42.594;23.414;2022-12-18T02:00:26;95316.22;;;6.66;91.36
42705;BME280;28342;42.594;23.414;2022-12-18T02:02:53;95334.41;;;6.63;91.62
42705;BME280;28342;42.594;23.414;2022-12-18T02:08:18;95335.94;;;6.38;91.55
42705;BME280;28342;42.594;23.414;2022-12-18T02:14:01;95334.63;;;6.41;92.46
42705;BME280;28342;42.594;23.414;2022-12-18T02:19:00;95335.13;;;6.43;91.28
42705;BME280;28342;42.594;23.414;2022-12-18T02:21:45;95331.44;;;6.39;91.62
42705;BME280;28342;42.594;23.414;2022-12-18T02:24:28;95346.25;;;6.45;91.34
42705;BME280;28342;42.594;23.414;2022-12-18T02:27:02;95342.03;;;6.49;91.78
42705;BME280;28342;42.594;23.414;2022-12-18T02:29:39;95337.66;;;6.07;92.22
42705;BME280;28342;42.594;23.414;2022-12-18T02:32:13;95348.53;;;6.26;92.51
42705;BME280;28342;42.594;23.414;2022-12-18T02:34:41;95358.59;;;6.34;91.86
42705;BME280;28342;42.594;23.414;2022-12-18T02:37:11;95361.44;;;6.27;92.21
42705;BME280;28342;42.594;23.414;2022-12-18T02:39:38;95354.63;;;6.37;91.64
42705;BME280;28342;42.594;23.414;2022-12-18T02:42:05;95346.72;;;6.32;92.18
42705;BME280;28342;42.594;23.414;2022-12-18T02:44:34;95359.38;;;6.40;91.68
42705;BME280;28342;42.594;23.414;2022-12-18T02:47:01;95348.84;;;6.40;91.25
42705;BME280;28342;42.594;23.414;2022-12-18T02:52:39;95365.69;;;6.39;91.05
42705;BME280;28342;42.594;23.414;2022-12-18T02:57:55;95370.50;;;6.52;91.53
42705;BME280;28342;42.594;23.414;2022-12-18T03:00:33;95371.00;;;6.44;91.07
42705;BME280;28342;42.594;23.414;2022-12-18T03:03:12;95374.97;;;6.46;90.60
42705;BME280;28342;42.594;23.414;2022-12-18T03:05:41;95369.69;;;6.46;91.07
42705;BME280;28342;42.594;23.414;2022-12-18T03:08:13;95366.28;;;6.51;90.25
42705;BME280;28342;42.594;23.414;2022-12-18T03:11:03;95378.91;;;6.49;90.29
42705;BME280;28342;42.594;23.414;2022-12-18T03:13:36;95372.06;;;6.58;90.08
42705;BME280;28342;42.594;23.414;2022-12-18T03:16:03;95381.97;;;6.20;90.80
42705;BME280;28342;42.594;23.414;2022-12-18T03:21:05;95393.38;;;6.31;89.81
42705;BME280;28342;42.594;23.414;2022-12-18T03:23:43;95395.09;;;6.05;90.33
42705;BME280;28342;42.594;23.414;2022-12-18T03:26:14;95396.66;;;6.06;90.41
42705;BME280;28342;42.594;23.414;2022-12-18T03:28:46;95394.28;;;6.05;90.76
42705;BME280;28342;42.594;23.414;2022-12-18T03:31:14;95401.09;;;5.95;90.47
42705;BME280;28342;42.594;23.414;2022-12-18T03:33:51;95394.25;;;5.57;90.52
42705;BME280;28342;42.594;23.414;2022-12-18T03:36:17;95408.06;;;5.75;91.37
42705;BME280;28342;42.594;23.414;2022-12-18T03:38:42;95414.69;;;5.82;91.91
42705;BME280;28342;42.594;23.414;2022-12-18T03:41:26;95419.50;;;5.90;90.95
42705;BME280;28342;42.594;23.414;2022-12-18T03:52:20;95426.81;;;5.83;90.40
42705;BME280;28342;42.594;23.414;2022-12-18T03:54:49;95435.56;;;5.94;90.39
42705;BME280;28342;42.594;23.414;2022-12-18T03:57:18;95426.47;;;5.75;90.40
42705;BME280;28342;42.594;23.414;2022-12-18T03:59:45;95441.63;;;5.94;90.29
42705;BME280;28342;42.594;23.414;2022-12-18T04:02:15;95426.75;;;5.78;89.73
42705;BME280;28342;42.594;23.414;2022-12-18T04:04:42;95445.69;;;5.75;89.87
42705;BME280;28342;42.594;23.414;2022-12-18T04:07:09;95445.19;;;5.78;90.46
42705;BME280;28342;42.594;23.414;2022-12-18T04:09:36;95420.97;;;5.76;89.50
42705;BME280;28342;42.594;23.414;2022-12-18T04:12:03;95441.41;;;5.64;89.15
42705;BME280;28342;42.594;23.414;2022-12-18T04:14:29;95446.38;;;5.60;89.34
42705;BME280;28342;42.594;23.414;2022-12-18T04:16:54;95422.72;;;5.65;88.85
42705;BME280;28342;42.594;23.414;2022-12-18T04:19:20;95443.22;;;5.58;89.10
42705;BME280;28342;42.594;23.414;2022-12-18T04:21:45;95441.13;;;5.60;89.37
42705;BME280;28342;42.594;23.414;2022-12-18T04:24:10;95461.97;;;5.67;88.29
42705;BME280;28342;42.594;23.414;2022-12-18T04:26:36;95453.13;;;5.46;88.93
42705;BME280;28342;42.594;23.414;2022-12-18T04:29:02;95468.75;;;5.58;89.62
42705;BME280;28342;42.594;23.414;2022-12-18T04:31:28;95463.22;;;5.59;89.14
42705;BME280;28342;42.594;23.414;2022-12-18T04:33:53;95456.91;;;5.60;89.25
42705;BME280;28342;42.594;23.414;2022-12-18T04:36:18;95464.84;;;5.65;88.75
42705;BME280;28342;42.594;23.414;2022-12-18T04:38:44;95464.31;;;5.63;88.50
42705;BME280;28342;42.594;23.414;2022-12-18T04:41:09;95467.47;;;5.65;88.11
42705;BME280;28342;42.594;23.414;2022-12-18T04:43:35;95490.97;;;5.72;87.86
42705;BME280;28342;42.594;23.414;2022-12-18T04:46:05;95485.22;;;5.48;87.72
42705;BME280;28342;42.594;23.414;2022-12-18T04:48:30;95485.75;;;5.45;88.78
42705;BME280;28342;42.594;23.414;2022-12-18T04:50:56;95461.25;;;5.13;88.10
42705;BME280;28342;42.594;23.414;2022-12-18T04:53:21;95499.75;;;5.24;88.78
42705;BME280;28342;42.594;23.414;2022-12-18T04:55:47;95504.53;;;5.27;88.03
42705;BME280;28342;42.594;23.414;2022-12-18T04:58:12;95502.91;;;5.21;88.08
42705;BME280;28342;42.594;23.414;2022-12-18T05:00:38;95507.00;;;5.12;87.76
42705;BME280;28342;42.594;23.414;2022-12-18T05:03:03;95503.84;;;5.09;87.77
42705;BME280;28342;42.594;23.414;2022-12-18T05:05:28;95483.22;;;5.01;88.12
42705;BME280;28342;42.594;23.414;2022-12-18T05:07:54;95503.53;;;5.06;87.05
42705;BME280;28342;42.594;23.414;2022-12-18T05:10:19;95520.16;;;5.12;87.38
42705;BME280;28342;42.594;23.414;2022-12-18T05:12:45;95508.88;;;5.16;87.16
42705;BME280;28342;42.594;23.414;2022-12-18T05:15:23;95520.59;;;5.03;87.17
42705;BME280;28342;42.594;23.414;2022-12-18T05:17:48;95506.09;;;5.01;86.42
42705;BME280;28342;42.594;23.414;2022-12-18T05:20:14;95525.56;;;5.27;85.77
42705;BME280;28342;42.594;23.414;2022-12-18T05:22:40;95546.22;;;5.40;85.59
42705;BME280;28342;42.594;23.414;2022-12-18T05:25:05;95544.13;;;5.42;85.60
42705;BME280;28342;42.594;23.414;2022-12-18T05:27:31;95528.25;;;5.32;85.31
42705;BME280;28342;42.594;23.414;2022-12-18T05:29:56;95533.00;;;5.35;85.30
42705;BME280;28342;42.594;23.414;2022-12-18T05:32:21;95559.91;;;5.42;85.36
42705;BME280;28342;42.594;23.414;2022-12-18T05:34:47;95548.78;;;5.35;84.79
42705;BME280;28342;42.594;23.414;2022-12-18T05:37:12;95541.31;;;5.22;84.93
42705;BME280;28342;42.594;23.414;2022-12-18T05:39:38;95544.13;;;5.15;85.48
42705;BME280;28342;42.594;23.414;2022-12-18T05:42:03;95554.72;;;4.98;85.46
42705;BME280;28342;42.594;23.414;2022-12-18T05:44:28;95550.63;;;5.07;85.83
42705;BME280;28342;42.594;23.414;2022-12-18T05:46:54;95561.25;;;5.18;85.77
42705;BME280;28342;42.594;23.414;2022-12-18T05:49:19;95565.94;;;5.16;84.66
42705;BME280;28342;42.594;23.414;2022-12-18T05:51:45;95572.22;;;5.09;85.35
42705;BME280;28342;42.594;23.414;2022-12-18T05:54:11;95562.34;;;5.00;85.34
42705;BME280;28342;42.594;23.414;2022-12-18T05:56:36;95573.97;;;5.04;85.81
42705;BME280;28342;42.594;23.414;2022-12-18T05:59:01;95583.94;;;5.24;86.35
42705;BME280;28342;42.594;23.414;2022-12-18T06:01:27;95577.22;;;5.11;85.85
42705;BME280;28342;42.594;23.414;2022-12-18T06:03:53;95563.94;;;5.01;86.63
42705;BME280;28342;42.594;23.414;2022-12-18T06:06:22;95563.53;;;4.87;85.75
42705;BME280;28342;42.594;23.414;2022-12-18T06:08:49;95565.88;;;5.05;85.45
42705;BME280;28342;42.594;23.414;2022-12-18T06:11:20;95592.75;;;5.13;85.33
42705;BME280;28342;42.594;23.414;2022-12-18T06:13:46;95594.22;;;5.03;84.78
42705;BME280;28342;42.594;23.414;2022-12-18T06:16:12;95595.06;;;4.87;84.33
42705;BME280;28342;42.594;23.414;2022-12-18T06:18:38;95601.44;;;4.91;84.60
42705;BME280;28342;42.594;23.414;2022-12-18T06:21:03;95595.81;;;4.83;84.30
42705;BME280;28342;42.594;23.414;2022-12-18T06:23:29;95600.03;;;4.84;85.09
42705;BME280;28342;42.594;23.414;2022-12-18T06:25:54;95605.13;;;4.90;84.86
42705;BME280;28342;42.594;23.414;2022-12-18T06:28:20;95602.84;;;4.99;85.07
42705;BME280;28342;42.594;23.414;2022-12-18T06:30:47;95591.28;;;4.78;84.98
42705;BME280;28342;42.594;23.414;2022-12-18T06:33:13;95607.22;;;4.71;85.45
42705;BME280;28342;42.594;23.414;2022-12-18T06:35:39;95600.81;;;4.84;85.57
42705;BME280;28342;42.594;23.414;2022-12-18T06:38:05;95618.81;;;4.92;85.89
42705;BME280;28342;42.594;23.414;2022-12-18T06:40:30;95620.75;;;4.80;85.47
42705;BME280;28342;42.594;23.414;2022-12-18T06:42:56;95631.47;;;4.95;85.53
42705;BME280;28342;42.594;23.414;2022-12-18T06:45:21;95634.09;;;4.95;84.98
42705;BME280;28342;42.594;23.414;2022-12-18T06:47:47;95609.59;;;4.73;84.82
42705;BME280;28342;42.594;23.414;2022-12-18T06:50:13;95639.34;;;4.95;84.51
42705;BME280;28342;42.594;23.414;2022-12-18T06:52:39;95635.19;;;4.99;85.04
42705;BME280;28342;42.594;23.414;2022-12-18T06:55:06;95639.34;;;4.95;84.51
42705;BME280;28342;42.594;23.414;2022-12-18T06:57:33;95637.63;;;4.84;84.59
42705;BME280;28342;42.594;23.414;2022-12-18T06:59:58;95640.94;;;4.96;84.61
42705;BME280;28342;42.594;23.414;2022-12-18T07:02:24;95648.47;;;5.09;85.18
42705;BME280;28342;42.594;23.414;2022-12-18T07:04:49;95634.22;;;5.05;84.63
42705;BME280;28342;42.594;23.414;2022-12-18T07:07:14;95647.94;;;5.07;83.92
42705;BME280;28342;42.594;23.414;2022-12-18T07:09:40;95626.25;;;5.00;84.92
42705;BME280;28342;42.594;23.414;2022-12-18T07:12:05;95647.56;;;5.21;84.05
42705;BME280;28342;42.594;23.414;2022-12-18T07:14:31;95660.53;;;5.05;82.80
42705;BME280;28342;42.594;23.414;2022-12-18T07:16:57;95651.91;;;5.10;83.08
42705;BME280;28342;42.594;23.414;2022-12-18T07:19:22;95673.91;;;5.04;83.22
42705;BME280;28342;42.594;23.414;2022-12-18T07:21:49;95661.84;;;4.86;82.16
42705;BME280;28342;42.594;23.414;2022-12-18T07:24:15;95677.25;;;4.99;81.03
42705;BME280;28342;42.594;23.414;2022-12-18T07:26:40;95668.34;;;5.00;81.78
42705;BME280;28342;42.594;23.414;2022-12-18T07:29:06;95648.31;;;4.77;80.44
42705;BME280;28342;42.594;23.414;2022-12-18T07:31:31;95645.75;;;4.83;80.46
42705;BME280;28342;42.594;23.414;2022-12-18T07:33:57;95648.00;;;4.74;82.19
42705;BME280;28342;42.594;23.414;2022-12-18T07:36:22;95677.59;;;4.86;81.94
42705;BME280;28342;42.594;23.414;2022-12-18T07:38:48;95662.06;;;4.85;83.33
42705;BME280;28342;42.594;23.414;2022-12-18T07:41:14;95666.47;;;4.79;81.68
42705;BME280;28342;42.594;23.414;2022-12-18T07:43:41;95683.00;;;4.96;81.01
42705;BME280;28342;42.594;23.414;2022-12-18T07:46:07;95670.97;;;4.62;81.92
42705;BME280;28342;42.594;23.414;2022-12-18T07:48:33;95683.91;;;4.85;81.80
42705;BME280;28342;42.594;23.414;2022-12-18T07:51:00;95691.31;;;4.71;81.37
42705;BME280;28342;42.594;23.414;2022-12-18T07:53:26;95689.97;;;4.69;81.37
42705;BME280;28342;42.594;23.414;2022-12-18T07:55:58;95689.97;;;4.69;80.85
42705;BME280;28342;42.594;23.414;2022-12-18T07:58:24;95690.19;;;4.84;81.54
42705;BME280;28342;42.594;23.414;2022-12-18T08:00:50;95697.38;;;4.72;81.39
42705;BME280;28342;42.594;23.414;2022-12-18T08:03:17;95705.59;;;4.75;81.13
42705;BME280;28342;42.594;23.414;2022-12-18T08:05:43;95702.66;;;4.55;80.20
42705;BME280;28342;42.594;23.414;2022-12-18T08:08:08;95702.50;;;4.62;81.23
42705;BME280;28342;42.594;23.414;2022-12-18T08:10:34;95702.09;;;4.53;80.69
42705;BME280;28342;42.594;23.414;2022-12-18T08:12:59;95727.81;;;4.68;80.89
42705;BME280;28342;42.594;23.414;2022-12-18T08:15:24;95716.69;;;4.61;80.56
42705;BME280;28342;42.594;23.414;2022-12-18T08:17:50;95704.97;;;4.52;80.04
42705;BME280;28342;42.594;23.414;2022-12-18T08:20:15;95721.78;;;4.50;81.02
42705;BME280;28342;42.594;23.414;2022-12-18T08:22:42;95733.38;;;4.55;80.62
42705;BME280;28342;42.594;23.414;2022-12-18T08:25:08;95726.22;;;4.67;80.44
42705;BME280;28342;42.594;23.414;2022-12-18T08:27:33;95732.66;;;4.59;80.27
42705;BME280;28342;42.594;23.414;2022-12-18T08:29:59;95745.81;;;4.76;80.63
42705;BME280;28342;42.594;23.414;2022-12-18T08:32:25;95731.41;;;4.62;79.84
42705;BME280;28342;42.594;23.414;2022-12-18T08:34:51;95735.63;;;4.63;80.30
42705;BME280;28342;42.594;23.414;2022-12-18T08:37:17;95750.59;;;4.79;80.11
42705;BME280;28342;42.594;23.414;2022-12-18T08:39:42;95742.31;;;4.70;79.86
42705;BME280;28342;42.594;23.414;2022-12-18T08:42:08;95749.72;;;4.90;80.12
42705;BME280;28342;42.594;23.414;2022-12-18T08:44:51;95743.19;;;4.76;80.05
42705;BME280;28342;42.594;23.414;2022-12-18T08:47:17;95739.28;;;4.62;79.28
42705;BME280;28342;42.594;23.414;2022-12-18T08:49:42;95731.06;;;4.58;80.47
42705;BME280;28342;42.594;23.414;2022-12-18T08:52:08;95712.84;;;4.52;80.56
42705;BME280;28342;42.594;23.414;2022-12-18T08:54:34;95749.81;;;4.78;79.94
42705;BME280;28342;42.594;23.414;2022-12-18T08:57:00;95724.22;;;4.40;80.36
42705;BME280;28342;42.594;23.414;2022-12-18T08:59:25;95738.38;;;4.39;81.36
42705;BME280;28342;42.594;23.414;2022-12-18T09:01:53;95754.66;;;4.53;81.10
42705;BME280;28342;42.594;23.414;2022-12-18T09:04:18;95749.00;;;4.78;81.68
42705;BME280;28342;42.594;23.414;2022-12-18T09:06:44;95757.22;;;4.65;80.97
42705;BME280;28342;42.594;23.414;2022-12-18T09:09:09;95748.84;;;4.68;80.94
42705;BME280;28342;42.594;23.414;2022-12-18T09:11:35;95716.69;;;4.61;81.45
42705;BME280;28342;42.594;23.414;2022-12-18T09:14:01;95746.03;;;4.74;80.80
42705;BME280;28342;42.594;23.414;2022-12-18T09:16:27;95727.31;;;4.71;80.44
42705;BME280;28342;42.594;23.414;2022-12-18T09:18:55;95750.13;;;4.82;79.38
42705;BME280;28342;42.594;23.414;2022-12-18T09:21:26;95745.34;;;4.79;80.69
42705;BME280;28342;42.594;23.414;2022-12-18T09:23:52;95745.47;;;4.89;79.91
42705;BME280;28342;42.594;23.414;2022-12-18T09:26:18;95748.69;;;4.91;80.24
42705;BME280;28342;42.594;23.414;2022-12-18T09:28:44;95723.59;;;4.67;80.71
42705;BME280;28342;42.594;23.414;2022-12-18T09:31:11;95734.03;;;4.78;80.41
42705;BME280;28342;42.594;23.414;2022-12-18T09:33:37;95744.09;;;5.03;80.54
42705;BME280;28342;42.594;23.414;2022-12-18T09:36:05;95737.34;;;5.07;80.19
42705;BME280;28342;42.594;23.414;2022-12-18T09:38:31;95749.03;;;5.17;79.54
42705;BME280;28342;42.594;23.414;2022-12-18T09:41:00;95741.13;;;5.17;79.43
42705;BME280;28342;42.594;23.414;2022-12-18T09:43:43;95750.41;;;5.02;78.75
42705;BME280;28342;42.594;23.414;2022-12-18T09:46:19;95760.59;;;5.16;79.63
42705;BME280;28342;42.594;23.414;2022-12-18T09:48:49;95754.38;;;5.05;80.09
42705;BME280;28342;42.594;23.414;2022-12-18T09:51:20;95749.47;;;5.08;79.18
42705;BME280;28342;42.594;23.414;2022-12-18T09:54:01;95735.75;;;5.06;79.24
42705;BME280;28342;42.594;23.414;2022-12-18T09:56:30;95729.22;;;5.09;79.78
42705;BME280;28342;42.594;23.414;2022-12-18T09:58:59;95737.75;;;5.38;80.16
42705;BME280;28342;42.594;23.414;2022-12-18T10:01:27;95738.44;;;5.12;80.59
42705;BME280;28342;42.594;23.414;2022-12-18T10:03:54;95747.69;;;5.36;79.57
42705;BME280;28342;42.594;23.414;2022-12-18T10:06:25;95742.59;;;5.46;78.97
42705;BME280;28342;42.594;23.414;2022-12-18T10:14:43;95740.09;;;5.56;77.96
42705;BME280;28342;42.594;23.414;2022-12-18T10:20:24;95736.41;;;5.57;79.43
42705;BME280;28342;42.594;23.414;2022-12-18T10:23:01;95756.47;;;5.63;78.05
42705;BME280;28342;42.594;23.414;2022-12-18T10:25:38;95736.38;;;5.52;76.94
42705;BME280;28342;42.594;23.414;2022-12-18T10:28:12;95732.78;;;5.42;76.49
42705;BME280;28342;42.594;23.414;2022-12-18T10:30:40;95740.25;;;5.50;76.20
42705;BME280;28342;42.594;23.414;2022-12-18T10:33:05;95743.56;;;5.62;75.93
42705;BME280;28342;42.594;23.414;2022-12-18T10:35:31;95728.06;;;5.22;74.57
42705;BME280;28342;42.594;23.414;2022-12-18T10:40:30;95746.69;;;5.20;76.66
42705;BME280;28342;42.594;23.414;2022-12-18T10:43:12;95727.06;;;4.89;76.24
42705;BME280;28342;42.594;23.414;2022-12-18T10:45:39;95731.59;;;5.10;77.85
42705;BME280;28342;42.594;23.414;2022-12-18T10:48:17;95734.16;;;5.05;76.55
42705;BME280;28342;42.594;23.414;2022-12-18T10:50:47;95705.09;;;4.95;76.68
42705;BME280;28342;42.594;23.414;2022-12-18T10:53:19;95742.38;;;5.31;76.49
42705;BME280;28342;42.594;23.414;2022-12-18T10:55:46;95732.94;;;5.13;74.87
42705;BME280;28342;42.594;23.414;2022-12-18T10:58:28;95717.41;;;5.12;75.01
42705;BME280;28342;42.594;23.414;2022-12-18T11:01:17;95729.66;;;5.23;75.90
42705;BME280;28342;42.594;23.414;2022-12-18T11:04:07;95739.69;;;5.26;75.08
42705;BME280;28342;42.594;23.414;2022-12-18T11:06:33;95727.88;;;5.06;76.41
42705;BME280;28342;42.594;23.414;2022-12-18T11:09:24;95744.75;;;5.10;78.14
42705;BME280;28342;42.594;23.414;2022-12-18T11:11:52;95726.69;;;4.97;76.93
42705;BME280;28342;42.594;23.414;2022-12-18T11:14:31;95733.84;;;4.85;75.68
42705;BME280;28342;42.594;23.414;2022-12-18T11:16:58;95745.78;;;5.09;75.03
42705;BME280;28342;42.594;23.414;2022-12-18T11:19:39;95728.75;;;4.95;75.28
42705;BME280;28342;42.594;23.414;2022-12-18T11:22:26;95727.31;;;4.71;73.78
42705;BME280;28342;42.594;23.414;2022-12-18T11:27:24;95750.72;;;4.89;74.55
42705;BME280;28342;42.594;23.414;2022-12-18T11:29:50;95741.69;;;4.80;74.15
42705;BME280;28342;42.594;23.414;2022-12-18T11:32:36;95749.94;;;4.72;73.35
42705;BME280;28342;42.594;23.414;2022-12-18T11:43:55;95733.50;;;4.60;73.27
42705;BME280;28342;42.594;23.414;2022-12-18T11:46:37;95739.44;;;4.72;72.52
42705;BME280;28342;42.594;23.414;2022-12-18T11:49:34;95761.84;;;4.91;73.81
42705;BME280;28342;42.594;23.414;2022-12-18T11:52:16;95759.66;;;4.88;72.72
42705;BME280;28342;42.594;23.414;2022-12-18T11:54:43;95746.06;;;4.91;73.20
42705;BME280;28342;42.594;23.414;2022-12-18T12:00:11;95757.50;;;5.02;71.68
42705;BME280;28342;42.594;23.414;2022-12-18T12:08:53;95765.06;;;4.98;72.09
42705;BME280;28342;42.594;23.414;2022-12-18T12:25:49;95757.09;;;5.10;69.73
42705;BME280;28342;42.594;23.414;2022-12-18T12:39:40;95759.69;;;5.27;71.75
42705;BME280;28342;42.594;23.414;2022-12-18T12:45:51;95758.38;;;5.07;70.98
42705;BME280;28342;42.594;23.414;2022-12-18T12:48:52;95755.34;;;4.99;71.54
42705;BME280;28342;42.594;23.414;2022-12-18T12:51:32;95762.06;;;5.06;71.56
42705;BME280;28342;42.594;23.414;2022-12-18T12:53:59;95761.25;;;5.06;70.93
42705;BME280;28342;42.594;23.414;2022-12-18T12:57:05;95771.75;;;5.23;71.68
42705;BME280;28342;42.594;23.414;2022-12-18T13:04:52;95761.69;;;5.20;71.78
42705;BME280;28342;42.594;23.414;2022-12-18T13:07:26;95786.72;;;5.39;71.12
42705;BME280;28342;42.594;23.414;2022-12-18T13:34:15;95784.13;;;5.05;71.88
42705;BME280;28342;42.594;23.414;2022-12-18T13:36:41;95794.28;;;5.19;71.45
42705;BME280;28342;42.594;23.414;2022-12-18T13:39:33;95797.16;;;5.34;72.05
42705;BME280;28342;42.594;23.414;2022-12-18T13:44:40;95814.06;;;5.38;73.60
42705;BME280;28342;42.594;23.414;2022-12-18T13:49:54;95816.22;;;5.41;72.97
42705;BME280;28342;42.594;23.414;2022-12-18T13:52:26;95816.94;;;5.20;71.39
42705;BME280;28342;42.594;23.414;2022-12-18T13:54:55;95825.16;;;5.23;72.18
42705;BME280;28342;42.594;23.414;2022-12-18T13:59:53;95821.31;;;5.31;73.38
42705;BME280;28342;42.594;23.414;2022-12-18T14:02:24;95826.88;;;5.34;72.66
42705;BME280;28342;42.594;23.414;2022-12-18T14:04:50;95818.28;;;5.39;72.98
42705;BME280;28342;42.594;23.414;2022-12-18T14:07:26;95817.75;;;5.37;71.92
42705;BME280;28342;42.594;23.414;2022-12-18T14:09:58;95827.78;;;5.23;72.77
42705;BME280;28342;42.594;23.414;2022-12-18T14:12:26;95809.94;;;5.25;73.77
42705;BME280;28342;42.594;23.414;2022-12-18T14:15:32;95828.31;;;5.42;73.84
42705;BME280;28342;42.594;23.414;2022-12-18T14:20:49;95817.16;;;5.35;73.15
42705;BME280;28342;42.594;23.414;2022-12-18T14:23:41;95844.13;;;5.42;72.42
42705;BME280;28342;42.594;23.414;2022-12-18T14:26:27;95831.75;;;5.43;71.99
42705;BME280;28342;42.594;23.414;2022-12-18T14:28:58;95811.91;;;5.35;72.57
42705;BME280;28342;42.594;23.414;2022-12-18T14:31:28;95834.03;;;5.56;72.03
42705;BME280;28342;42.594;23.414;2022-12-18T14:33:54;95816.94;;;5.36;72.27
42705;BME280;28342;42.594;23.414;2022-12-18T14:36:27;95819.66;;;5.25;72.22
42705;BME280;28342;42.594;23.414;2022-12-18T14:38:54;95827.84;;;5.28;72.60
42705;BME280;28342;42.594;23.414;2022-12-18T14:41:21;95839.47;;;5.49;71.93
42705;BME280;28342;42.594;23.414;2022-12-18T14:43:49;95842.81;;;5.45;71.73
42705;BME280;28342;42.594;23.414;2022-12-18T14:46:48;95844.28;;;5.52;72.55
42705;BME280;28342;42.594;23.414;2022-12-18T14:49:31;95847.28;;;5.44;72.80
42705;BME280;28342;42.594;23.414;2022-12-18T14:52:03;95846.69;;;5.37;73.17
42705;BME280;28342;42.594;23.414;2022-12-18T14:54:30;95838.91;;;5.47;72.47
42705;BME280;28342;42.594;23.414;2022-12-18T14:57:05;95837.88;;;5.48;71.70
42705;BME280;28342;42.594;23.414;2022-12-18T14:59:31;95840.13;;;5.39;72.57
42705;BME280;28342;42.594;23.414;2022-12-18T15:04:32;95846.97;;;5.57;71.88
42705;BME280;28342;42.594;23.414;2022-12-18T15:09:28;95841.69;;;5.57;70.64
42705;BME280;28342;42.594;23.414;2022-12-18T15:11:58;95856.50;;;5.63;69.77
42705;BME280;28342;42.594;23.414;2022-12-18T15:17:17;95841.16;;;5.55;69.78
42705;BME280;28342;42.594;23.414;2022-12-18T15:19:45;95838.13;;;5.47;69.68
42705;BME280;28342;42.594;23.414;2022-12-18T15:22:19;95854.00;;;5.52;69.24
42705;BME280;28342;42.594;23.414;2022-12-18T15:24:45;95843.63;;;5.45;69.62
42705;BME280;28342;42.594;23.414;2022-12-18T15:27:40;95865.81;;;5.32;68.60
42705;BME280;28342;42.594;23.414;2022-12-18T15:32:39;95869.78;;;5.35;68.45